createdAt,value
2018-04-28T00:00:00.635Z,7.49
2018-04-28T00:02:28.219Z,7.55
2018-04-28T00:04:55.798Z,7.50
2018-04-28T00:07:23.372Z,7.50
2018-04-28T00:09:50.962Z,7.42
2018-04-28T00:12:18.550Z,7.47
2018-04-28T00:14:46.130Z,7.38
2018-04-28T00:17:16.583Z,7.41
2018-04-28T00:19:44.886Z,7.40
2018-04-28T00:22:13.366Z,7.35
2018-04-28T00:24:43.518Z,7.30
2018-04-28T00:27:31.427Z,7.26
2018-04-28T00:33:01.166Z,7.19
2018-04-28T00:35:29.666Z,7.18
2018-04-28T00:37:57.847Z,7.10
2018-04-28T00:43:22.800Z,7.03
2018-04-28T00:45:54.159Z,7.00
2018-04-28T00:48:36.106Z,6.93
2018-04-28T00:51:13.431Z,6.95
2018-04-28T00:53:40.978Z,6.95
2018-04-28T00:56:09.314Z,6.95
2018-04-28T00:58:44.370Z,6.99
2018-04-28T01:01:23.410Z,6.92
2018-04-28T01:03:54.609Z,6.90
2018-04-28T01:06:22.194Z,6.87
2018-04-28T01:08:49.774Z,6.79
2018-04-28T01:11:19.142Z,6.77
2018-04-28T01:13:48.337Z,6.71
2018-04-28T01:16:17.386Z,6.78
2018-04-28T01:21:41.618Z,6.74
2018-04-28T01:24:11.950Z,6.73
2018-04-28T01:26:44.498Z,6.68
2018-04-28T01:29:19.645Z,6.62
2018-04-28T01:31:50.695Z,6.66
2018-04-28T01:34:23.195Z,6.57
2018-04-28T01:40:05.196Z,6.60
2018-04-28T01:45:49.098Z,6.53
2018-04-28T01:48:26.226Z,6.51
2018-04-28T01:50:58.499Z,6.52
2018-04-28T01:53:39.595Z,6.47
2018-04-28T01:56:26.585Z,6.45
2018-04-28T01:59:12.823Z,6.46
2018-04-28T02:01:43.195Z,6.43
2018-04-28T02:04:16.226Z,6.41
2018-04-28T02:07:00.414Z,6.36
2018-04-28T02:09:28.007Z,6.35
2018-04-28T02:12:01.490Z,6.33
2018-04-28T02:14:37.958Z,6.27
2018-04-28T02:17:05.618Z,6.29
2018-04-28T02:22:40.429Z,6.25
2018-04-28T02:25:12.078Z,6.21
2018-04-28T02:27:47.437Z,6.20
2018-04-28T02:30:15.891Z,6.17
2018-04-28T02:32:47.210Z,6.14
2018-04-28T02:35:22.551Z,6.15
2018-04-28T02:37:50.130Z,6.14
2018-04-28T02:40:23.191Z,6.11
2018-04-28T02:42:57.247Z,6.07
2018-04-28T02:45:51.532Z,5.99
2018-04-28T02:48:28.705Z,5.96
2018-04-28T02:50:59.973Z,5.96
2018-04-28T02:53:28.270Z,5.99
2018-04-28T02:58:57.921Z,5.95
2018-04-28T03:01:34.303Z,5.95
2018-04-28T03:04:01.967Z,5.95
2018-04-28T03:09:41.758Z,5.87
2018-04-28T03:12:09.338Z,5.83
2018-04-28T03:14:38.469Z,5.83
2018-04-28T03:17:10.662Z,5.80
2018-04-28T03:19:40.205Z,5.80
2018-04-28T03:22:07.790Z,5.80
2018-04-28T03:24:45.111Z,5.76
2018-04-28T03:27:19.302Z,5.74
2018-04-28T03:29:55.503Z,5.66
2018-04-28T03:32:34.741Z,5.65
2018-04-28T03:35:02.318Z,5.65
2018-04-28T03:37:32.377Z,5.63
2018-04-28T03:39:59.952Z,5.62
2018-04-28T03:42:31.963Z,5.61
2018-04-28T03:44:59.570Z,5.61
2018-04-28T03:50:31.490Z,5.67
2018-04-28T03:53:04.902Z,5.71
2018-04-28T03:55:32.484Z,5.76
2018-04-28T03:58:11.721Z,5.79
2018-04-28T04:00:51.041Z,5.81
2018-04-28T04:03:23.398Z,5.84
2018-04-28T04:05:53.894Z,5.87
2018-04-28T04:08:22.882Z,5.90
2018-04-28T04:13:59.677Z,5.96
2018-04-28T04:16:45.983Z,6.01
2018-04-28T04:19:29.196Z,6.05
2018-04-28T04:22:08.375Z,6.07
2018-04-28T04:24:52.512Z,6.08
2018-04-28T04:27:27.021Z,6.09
2018-04-28T04:30:10.306Z,6.14
2018-04-28T04:32:53.634Z,6.20
2018-04-28T04:38:27.589Z,6.23
2018-04-28T04:40:58.070Z,6.24
2018-04-28T04:47:02.003Z,6.23
2018-04-28T04:49:45.316Z,6.23
2018-04-28T04:52:12.893Z,6.30
2018-04-28T04:54:51.335Z,6.36
2018-04-28T05:03:44.905Z,6.53
2018-04-28T05:06:23.923Z,6.60
2018-04-28T05:08:57.433Z,6.66
2018-04-28T05:11:36.959Z,6.70
2018-04-28T05:17:27.107Z,6.84
2018-04-28T05:20:06.428Z,6.95
2018-04-28T05:25:56.282Z,7.13
2018-04-28T05:28:34.903Z,7.27
2018-04-28T05:31:05.231Z,7.38
2018-04-28T05:36:53.266Z,7.61
2018-04-28T05:39:39.370Z,7.76
2018-04-28T05:42:27.602Z,7.97
2018-04-28T05:45:01.083Z,8.08
2018-04-28T05:47:36.391Z,8.25
2018-04-28T05:50:08.542Z,8.40
2018-04-28T05:52:48.678Z,8.55
2018-04-28T05:58:34.919Z,8.94
2018-04-28T06:01:07.062Z,9.18
2018-04-28T06:03:50.128Z,9.39
2018-04-28T06:12:56.338Z,10.22
2018-04-28T06:15:31.373Z,10.44
2018-04-28T06:18:10.615Z,10.71
2018-04-28T06:20:39.023Z,10.93
2018-04-28T06:23:06.600Z,11.09
2018-04-28T06:25:34.261Z,11.30
2018-04-28T06:28:01.926Z,11.47
2018-04-28T06:30:29.502Z,11.68
2018-04-28T06:32:57.146Z,11.84
2018-04-28T06:35:24.733Z,11.96
2018-04-28T06:37:52.320Z,12.10
2018-04-28T06:40:19.896Z,12.21
2018-04-28T06:42:47.518Z,12.30
2018-04-28T06:45:15.099Z,12.53
2018-04-28T06:47:42.686Z,12.63
2018-04-28T06:50:10.258Z,12.77
2018-04-28T06:52:37.846Z,12.82
2018-04-28T06:55:05.422Z,13.09
2018-04-28T06:57:33.063Z,13.28
2018-04-28T07:00:00.678Z,13.40
2018-04-28T07:02:28.272Z,13.62
2018-04-28T07:04:55.944Z,13.67
2018-04-28T07:07:23.647Z,13.82
2018-04-28T07:09:51.226Z,14.03
2018-04-28T07:12:18.808Z,14.10
2018-04-28T07:14:46.426Z,14.14
2018-04-28T07:17:14.014Z,14.28
2018-04-28T07:19:41.622Z,14.42
2018-04-28T07:22:09.213Z,14.60
2018-04-28T07:24:36.802Z,14.75
2018-04-28T07:27:04.560Z,14.84
2018-04-28T07:29:32.202Z,14.96
2018-04-28T07:31:59.830Z,15.12
2018-04-28T07:34:27.547Z,15.22
2018-04-28T07:36:55.163Z,15.32
2018-04-28T07:39:22.819Z,15.48
2018-04-28T07:41:50.402Z,15.53
2018-04-28T07:44:17.981Z,15.75
2018-04-28T07:46:45.660Z,15.80
2018-04-28T07:49:13.369Z,15.96
2018-04-28T07:51:40.983Z,15.95
2018-04-28T07:54:08.840Z,16.08
2018-04-28T07:56:36.469Z,16.32
2018-04-28T07:59:04.050Z,16.29
2018-04-28T08:01:31.640Z,16.32
2018-04-28T08:03:59.350Z,16.47
2018-04-28T08:06:26.938Z,16.68
2018-04-28T08:08:54.546Z,16.95
2018-04-28T08:11:22.126Z,16.99
2018-04-28T08:13:49.716Z,17.12
2018-04-28T08:16:17.305Z,17.40
2018-04-28T08:18:44.913Z,17.46
2018-04-28T08:21:12.528Z,17.61
2018-04-28T08:23:40.138Z,17.59
2018-04-28T08:26:07.726Z,17.78
2018-04-28T08:28:35.365Z,17.72
2018-04-28T08:31:02.946Z,17.77
2018-04-28T08:33:30.532Z,17.80
2018-04-28T08:35:58.251Z,18.17
2018-04-28T08:38:25.830Z,18.14
2018-04-28T08:40:53.413Z,18.27
2018-04-28T08:43:20.997Z,18.43
2018-04-28T08:45:48.610Z,18.68
2018-04-28T08:48:18.715Z,18.72
2018-04-28T08:50:46.298Z,18.59
2018-04-28T08:53:13.908Z,18.70
2018-04-28T08:55:41.494Z,18.97
2018-04-28T08:58:09.082Z,18.85
2018-04-28T09:00:41.264Z,18.99
2018-04-28T09:03:08.882Z,19.02
2018-04-28T09:05:36.461Z,18.93
2018-04-28T09:08:04.039Z,18.89
2018-04-28T09:10:31.616Z,18.88
2018-04-28T09:12:59.257Z,19.04
2018-04-28T09:15:26.805Z,19.40
2018-04-28T09:17:54.462Z,19.56
2018-04-28T09:20:22.046Z,19.59
2018-04-28T09:22:49.866Z,19.61
2018-04-28T09:25:17.449Z,19.85
2018-04-28T09:27:45.073Z,19.98
2018-04-28T09:30:12.648Z,20.30
2018-04-28T09:32:40.230Z,20.38
2018-04-28T09:35:07.929Z,20.39
2018-04-28T09:37:35.512Z,20.26
2018-04-28T09:40:03.215Z,20.18
2018-04-28T09:42:30.745Z,20.27
2018-04-28T09:44:58.339Z,20.58
2018-04-28T09:47:25.912Z,20.65
2018-04-28T09:49:53.491Z,20.68
2018-04-28T09:52:21.129Z,20.78
2018-04-28T09:54:48.706Z,20.77
2018-04-28T09:57:16.354Z,20.81
2018-04-28T09:59:43.932Z,20.93
2018-04-28T10:02:17.177Z,21.18
2018-04-28T10:04:44.834Z,21.08
2018-04-28T10:07:12.410Z,21.11
2018-04-28T10:09:39.989Z,21.11
2018-04-28T10:12:07.602Z,20.71
2018-04-28T10:14:35.221Z,20.66
2018-04-28T10:17:02.879Z,20.93
2018-04-28T10:19:30.545Z,21.17
2018-04-28T10:21:58.169Z,21.29
2018-04-28T10:24:25.749Z,21.44
2018-04-28T10:26:53.468Z,21.62
2018-04-28T10:29:21.047Z,21.83
2018-04-28T10:31:48.625Z,21.68
2018-04-28T10:34:16.909Z,21.81
2018-04-28T10:36:44.593Z,21.85
2018-04-28T10:39:12.176Z,21.76
2018-04-28T10:41:39.781Z,21.74
2018-04-28T10:44:07.738Z,21.60
2018-04-28T10:46:35.316Z,21.43
2018-04-28T10:49:02.937Z,21.22
2018-04-28T10:51:30.522Z,21.63
2018-04-28T10:53:58.190Z,21.64
2018-04-28T10:56:25.717Z,21.88
2018-04-28T10:58:53.294Z,22.10
2018-04-28T11:01:20.901Z,22.13
2018-04-28T11:03:48.479Z,22.28
2018-04-28T11:06:16.138Z,22.15
2018-04-28T11:08:44.665Z,22.32
2018-04-28T11:11:12.286Z,22.44
2018-04-28T11:13:39.914Z,22.28
2018-04-28T11:16:07.499Z,22.43
2018-04-28T11:18:35.077Z,22.46
2018-04-28T11:21:02.691Z,22.50
2018-04-28T11:23:30.277Z,22.61
2018-04-28T11:25:57.857Z,22.85
2018-04-28T11:28:25.571Z,22.57
2018-04-28T11:30:53.145Z,22.53
2018-04-28T11:33:20.754Z,22.62
2018-04-28T11:35:49.262Z,22.80
2018-04-28T11:38:17.113Z,22.73
2018-04-28T11:40:44.653Z,22.70
2018-04-28T11:43:12.234Z,22.36
2018-04-28T11:45:39.916Z,22.55
2018-04-28T11:48:07.540Z,22.58
2018-04-28T11:50:35.114Z,22.60
2018-04-28T11:53:02.694Z,22.86
2018-04-28T11:55:30.324Z,23.16
2018-04-28T11:57:57.901Z,23.40
2018-04-28T12:00:25.546Z,23.52
2018-04-28T12:02:53.133Z,23.59
2018-04-28T12:05:20.742Z,23.60
2018-04-28T12:07:48.317Z,23.62
2018-04-28T12:10:15.933Z,23.82
2018-04-28T12:12:43.505Z,23.77
2018-04-28T12:15:11.078Z,23.74
2018-04-28T12:17:38.686Z,23.81
2018-04-28T12:20:11.306Z,23.81
2018-04-28T12:22:39.741Z,23.83
2018-04-28T12:25:07.313Z,23.85
2018-04-28T12:27:34.898Z,23.87
2018-04-28T12:30:02.528Z,23.80
2018-04-28T12:32:30.142Z,23.74
2018-04-28T12:34:57.753Z,23.56
2018-04-28T12:37:25.371Z,23.67
2018-04-28T12:39:52.949Z,23.57
2018-04-28T12:42:20.550Z,23.74
2018-04-28T12:44:48.138Z,23.79
2018-04-28T12:47:15.849Z,23.67
2018-04-28T12:49:43.435Z,23.62
2018-04-28T12:52:11.057Z,23.71
2018-04-28T12:54:38.629Z,23.82
2018-04-28T12:57:06.210Z,23.98
2018-04-28T12:59:33.786Z,23.90
2018-04-28T13:02:01.361Z,23.94
2018-04-28T13:04:28.941Z,24.20
2018-04-28T13:06:56.519Z,24.19
2018-04-28T13:09:24.113Z,24.11
2018-04-28T13:11:51.689Z,24.13
2018-04-28T13:14:19.370Z,24.15
2018-04-28T13:16:46.954Z,24.14
2018-04-28T13:19:14.565Z,24.13
2018-04-28T13:21:42.194Z,23.91
2018-04-28T13:24:09.793Z,23.91
2018-04-28T13:26:37.501Z,24.02
2018-04-28T13:29:05.150Z,23.99
2018-04-28T13:31:32.689Z,23.92
2018-04-28T13:34:00.290Z,23.98
2018-04-28T13:36:27.864Z,24.04
2018-04-28T13:38:55.441Z,24.15
2018-04-28T13:41:23.013Z,24.07
2018-04-28T13:43:50.591Z,23.94
2018-04-28T13:46:18.236Z,24.05
2018-04-28T13:48:45.907Z,24.03
2018-04-28T13:51:13.522Z,23.87
2018-04-28T13:53:41.113Z,23.93
2018-04-28T13:56:09.099Z,23.76
2018-04-28T13:58:36.615Z,23.76
2018-04-28T14:01:04.228Z,23.82
2018-04-28T14:03:31.870Z,24.01
2018-04-28T14:05:59.477Z,23.94
2018-04-28T14:08:27.053Z,24.03
2018-04-28T14:10:54.674Z,24.20
2018-04-28T14:13:22.254Z,24.25
2018-04-28T14:15:49.835Z,24.32
2018-04-28T14:18:17.413Z,24.41
2018-04-28T14:20:44.997Z,24.49
2018-04-28T14:23:12.586Z,24.55
2018-04-28T14:25:40.233Z,24.50
2018-04-28T14:28:07.846Z,24.87
2018-04-28T14:30:35.427Z,24.67
2018-04-28T14:33:03.131Z,24.75
2018-04-28T14:35:30.706Z,24.85
2018-04-28T14:37:58.305Z,24.62
2018-04-28T14:40:25.930Z,24.45
2018-04-28T14:42:53.516Z,24.37
2018-04-28T14:45:21.130Z,24.29
2018-04-28T14:47:48.765Z,24.43
2018-04-28T14:50:16.387Z,24.56
2018-04-28T14:52:44.171Z,24.74
2018-04-28T14:55:11.709Z,24.87
2018-04-28T14:57:39.296Z,25.09
2018-04-28T15:00:06.971Z,25.23
2018-04-28T15:02:34.570Z,25.61
2018-04-28T15:05:02.155Z,25.54
2018-04-28T15:07:29.764Z,26.19
2018-04-28T15:09:57.435Z,26.21
2018-04-28T15:12:24.989Z,26.43
2018-04-28T15:14:52.605Z,26.52
2018-04-28T15:17:21.238Z,26.51
2018-04-28T15:19:48.816Z,26.50
2018-04-28T15:22:16.393Z,26.69
2018-04-28T15:24:43.969Z,27.08
2018-04-28T15:27:12.363Z,27.01
2018-04-28T15:29:40.086Z,26.75
2018-04-28T15:32:07.749Z,26.36
2018-04-28T15:34:35.330Z,26.62
2018-04-28T15:37:02.912Z,26.94
2018-04-28T15:39:30.496Z,27.05
2018-04-28T15:41:58.109Z,26.99
2018-04-28T15:44:25.758Z,26.91
2018-04-28T15:46:53.384Z,26.70
2018-04-28T15:49:20.970Z,26.03
2018-04-28T15:51:49.518Z,25.89
2018-04-28T15:54:21.238Z,26.15
2018-04-28T15:56:48.995Z,25.59
2018-04-28T15:59:16.600Z,25.19
2018-04-28T16:01:44.184Z,24.22
2018-04-28T16:04:11.791Z,23.77
2018-04-28T16:06:39.371Z,23.08
2018-04-28T16:09:06.946Z,22.65
2018-04-28T16:11:35.011Z,22.30
2018-04-28T16:14:02.798Z,22.11
2018-04-28T16:16:30.430Z,22.03
2018-04-28T16:18:58.058Z,22.10
2018-04-28T16:21:25.634Z,21.79
2018-04-28T16:23:53.282Z,21.65
2018-04-28T16:26:20.861Z,21.60
2018-04-28T16:28:48.459Z,21.47
2018-04-28T16:31:16.032Z,21.41
2018-04-28T16:33:43.609Z,21.39
2018-04-28T16:36:11.195Z,21.21
2018-04-28T16:38:38.828Z,21.26
2018-04-28T16:41:06.382Z,21.10
2018-04-28T16:43:34.081Z,21.06
2018-04-28T16:46:03.015Z,20.95
2018-04-28T16:48:30.590Z,20.94
2018-04-28T16:50:58.313Z,20.88
2018-04-28T16:53:26.354Z,20.80
2018-04-28T16:55:53.982Z,20.67
2018-04-28T16:58:21.557Z,20.67
2018-04-28T17:00:53.460Z,20.49
2018-04-28T17:03:21.112Z,20.46
2018-04-28T17:05:48.770Z,20.37
2018-04-28T17:08:16.355Z,20.36
2018-04-28T17:10:43.943Z,20.22
2018-04-28T17:13:11.614Z,20.07
2018-04-28T17:15:39.936Z,20.01
2018-04-28T17:18:08.424Z,19.85
2018-04-28T17:20:36.003Z,19.75
2018-04-28T17:23:03.578Z,19.61
2018-04-28T17:25:31.163Z,19.49
2018-04-28T17:27:58.871Z,19.37
2018-04-28T17:30:26.575Z,19.27
2018-04-28T17:32:54.169Z,19.19
2018-04-28T17:35:21.750Z,19.14
2018-04-28T17:37:49.423Z,19.08
2018-04-28T17:40:17.116Z,19.06
2018-04-28T17:42:44.745Z,19.00
2018-04-28T17:45:12.962Z,18.94
2018-04-28T17:47:40.606Z,18.88
2018-04-28T17:50:08.323Z,18.77
2018-04-28T17:52:35.986Z,18.69
2018-04-28T17:55:03.565Z,18.58
2018-04-28T17:57:31.891Z,18.48
2018-04-28T17:59:59.513Z,18.35
2018-04-28T18:02:27.136Z,18.18
2018-04-28T18:04:54.715Z,17.99
2018-04-28T18:07:22.341Z,17.82
2018-04-28T18:09:50.115Z,17.62
2018-04-28T18:12:17.762Z,17.43
2018-04-28T18:14:45.911Z,17.45
2018-04-28T18:17:13.499Z,17.34
2018-04-28T18:19:41.119Z,17.34
2018-04-28T18:22:08.713Z,17.41
2018-04-28T18:24:36.298Z,17.39
2018-04-28T18:27:03.951Z,17.38
2018-04-28T18:29:31.876Z,17.42
2018-04-28T18:31:59.627Z,17.39
2018-04-28T18:34:29.896Z,17.36
2018-04-28T18:36:57.561Z,17.23
2018-04-28T18:39:25.227Z,17.21
2018-04-28T18:41:52.971Z,17.07
2018-04-28T18:44:20.586Z,17.05
2018-04-28T18:46:48.173Z,16.97
2018-04-28T18:49:16.439Z,16.90
2018-04-28T18:51:44.077Z,16.85
2018-04-28T18:54:11.720Z,16.82
2018-04-28T18:56:39.522Z,16.79
2018-04-28T18:59:07.096Z,16.77
2018-04-28T19:01:34.807Z,16.74
2018-04-28T19:04:02.386Z,16.73
2018-04-28T19:06:30.040Z,16.79
2018-04-28T19:08:57.621Z,16.77
2018-04-28T19:11:25.205Z,16.97
2018-04-28T19:13:54.647Z,16.97
2018-04-28T19:16:25.812Z,16.88
2018-04-28T19:18:55.105Z,16.85
2018-04-28T19:21:22.870Z,16.92
2018-04-28T19:23:50.695Z,16.88
2018-04-28T19:26:18.315Z,16.82
2018-04-28T19:28:46.029Z,16.77
2018-04-28T19:31:13.884Z,16.79
2018-04-28T19:33:41.621Z,16.81
2018-04-28T19:36:09.217Z,16.80
2018-04-28T19:38:37.054Z,16.80
2018-04-28T19:41:04.653Z,16.85
2018-04-28T19:43:32.275Z,16.84
2018-04-28T19:45:59.905Z,16.90
2018-04-28T19:48:27.574Z,16.86
2018-04-28T19:50:55.162Z,16.91
2018-04-28T19:53:23.154Z,16.87
2018-04-28T19:55:51.083Z,17.00
2018-04-28T19:58:18.890Z,16.88
2018-04-28T20:00:46.596Z,16.84
2018-04-28T20:03:14.887Z,16.84
2018-04-28T20:05:42.755Z,16.72
2018-04-28T20:08:10.410Z,16.61
2018-04-28T20:10:39.985Z,16.67
2018-04-28T20:13:07.952Z,16.51
2018-04-28T20:15:35.585Z,16.49
2018-04-28T20:18:03.219Z,16.38
2018-04-28T20:20:30.821Z,16.27
2018-04-28T20:23:10.912Z,16.21
2018-04-28T20:25:38.499Z,16.15
2018-04-28T20:28:06.073Z,16.08
2018-04-28T20:30:33.713Z,15.98
2018-04-28T20:33:01.303Z,15.92
2018-04-28T20:35:28.933Z,15.86
2018-04-28T20:37:56.552Z,15.78
2018-04-28T20:40:24.157Z,15.77
2018-04-28T20:45:58.565Z,15.75
2018-04-28T20:48:26.267Z,15.66
2018-04-28T20:50:53.888Z,15.63
2018-04-28T20:53:21.492Z,15.62
2018-04-28T20:55:49.074Z,15.58
2018-04-28T20:58:16.689Z,15.54
2018-04-28T21:00:44.374Z,15.43
2018-04-28T21:03:11.957Z,15.37
2018-04-28T21:05:39.578Z,15.39
2018-04-28T21:08:07.295Z,15.36
2018-04-28T21:10:34.925Z,15.44
2018-04-28T21:13:02.510Z,15.32
2018-04-28T21:15:34.194Z,15.27
2018-04-28T21:18:01.919Z,15.25
2018-04-28T21:20:29.504Z,15.20
2018-04-28T21:22:57.100Z,15.27
2018-04-28T21:25:24.799Z,15.25
2018-04-28T21:27:52.381Z,15.22
2018-04-28T21:30:20.026Z,15.21
2018-04-28T21:32:47.618Z,15.15
2018-04-28T21:35:15.201Z,15.05
2018-04-28T21:37:42.815Z,14.97
2018-04-28T21:40:10.503Z,14.83
2018-04-28T21:42:38.129Z,14.78
2018-04-28T21:45:05.842Z,14.72
2018-04-28T21:47:33.465Z,14.65
2018-04-28T21:50:01.041Z,14.58
2018-04-28T21:52:28.622Z,14.54
2018-04-28T21:54:56.273Z,14.46
2018-04-28T21:57:23.953Z,14.45
2018-04-28T21:59:52.029Z,14.42
2018-04-28T22:02:20.247Z,14.37
2018-04-28T22:04:47.918Z,14.37
2018-04-28T22:07:15.545Z,14.37
2018-04-28T22:09:43.121Z,14.37
2018-04-28T22:12:10.732Z,14.34
2018-04-28T22:14:38.329Z,14.47
2018-04-28T22:17:05.906Z,14.73
2018-04-28T22:19:35.665Z,14.60
2018-04-28T22:22:03.251Z,14.53
2018-04-28T22:24:30.857Z,14.49
2018-04-28T22:26:58.433Z,14.78
2018-04-28T22:29:26.005Z,14.72
2018-04-28T22:31:53.809Z,14.51
2018-04-28T22:34:21.460Z,14.41
2018-04-28T22:36:49.042Z,14.35
2018-04-28T22:39:16.622Z,14.27
2018-04-28T22:41:44.239Z,14.22
2018-04-28T22:44:11.817Z,14.18
2018-04-28T22:46:39.394Z,14.17
2018-04-28T22:49:06.965Z,14.21
2018-04-28T22:51:34.537Z,14.17
2018-04-28T22:54:02.117Z,14.16
2018-04-28T22:56:29.694Z,14.14
2018-04-28T22:58:57.589Z,14.11
2018-04-28T23:01:25.215Z,14.08
2018-04-28T23:03:52.903Z,14.06
2018-04-28T23:06:20.488Z,14.06
2018-04-28T23:08:48.110Z,14.03
2018-04-28T23:11:15.689Z,14.01
2018-04-28T23:13:43.269Z,13.95
2018-04-28T23:16:10.853Z,13.86
2018-04-28T23:18:38.438Z,13.79
2018-04-28T23:21:06.079Z,13.72
2018-04-28T23:23:33.675Z,13.67
2018-04-28T23:26:01.307Z,13.63
2018-04-28T23:28:28.893Z,13.60
2018-04-28T23:30:56.474Z,13.58
2018-04-28T23:33:24.059Z,13.58
2018-04-28T23:35:51.637Z,13.56
2018-04-28T23:38:19.249Z,13.53
2018-04-28T23:40:46.835Z,13.48
2018-04-28T23:43:14.414Z,13.43
2018-04-28T23:45:42.565Z,13.40
2018-04-28T23:48:10.150Z,13.38
2018-04-28T23:50:37.776Z,13.41
2018-04-28T23:53:05.361Z,13.39
2018-04-28T23:55:32.961Z,13.33
2018-04-28T23:58:00.552Z,13.25
